Time;durP1;ratioP1;P1;durP2;ratioP2;P2;SDS_P1;SDS_P2;PMS_P1;PMS_P2;Temp;Humidity;BMP_temperature;BMP_pressure;BME280_temperature;BME280_humidity;BME280_pressure;Samples;Min_cycle;Max_cycle;Signal;HPM_P1;HPM_P2
2022/10/28 00:00:47;;;;;;;;;;;7.40;99.90;;;;;;5054111;28;19959;-72
2022/10/28 00:03:13;;;;;;;;;;;7.40;99.90;;;;;;5054266;28;19961;-71
2022/10/28 00:05:38;;;;;;;;;;;7.30;99.90;;;;;;5054259;28;19917;-72
2022/10/28 00:08:04;;;;;;;;;;;7.30;99.90;;;;;;5035880;28;19945;-72
2022/10/28 00:10:30;;;;;;;;;;;7.10;99.90;;;;;;5053985;28;19920;-69
2022/10/28 00:12:55;;;;;;;;;;;7.10;99.90;;;;;;5053609;28;20361;-71
2022/10/28 00:15:21;;;;;;;;;;;7.10;99.90;;;;;;5053447;28;20370;-72
2022/10/28 00:17:46;;;;;;;;;;;7.10;99.90;;;;;;5053604;28;19920;-72
2022/10/28 00:20:12;;;;;;;;;;;7.10;99.90;;;;;;5053011;28;19916;-72
2022/10/28 00:22:37;;;;;;;;;;;7.10;99.90;;;;;;5035607;28;19913;-72
2022/10/28 00:25:03;;;;;;;;;;;7.10;99.90;;;;;;5053767;28;19917;-72
2022/10/28 00:27:29;;;;;;;;;;;7.10;99.90;;;;;;5053466;28;19935;-72
2022/10/28 00:29:55;;;;;;;;;;;7.10;99.90;;;;;;5053280;28;19909;-72
2022/10/28 00:32:21;;;;;;;;;;;7.00;99.90;;;;;;5053389;28;19909;-72
2022/10/28 00:34:46;;;;;;;;;;;6.90;99.90;;;;;;5053726;28;19913;-72
2022/10/28 00:37:12;;;;;;;;;;;6.80;99.90;;;;;;5053419;28;20012;-72
2022/10/28 00:39:38;;;;;;;;;;;6.80;99.90;;;;;;5053366;28;19948;-72
2022/10/28 00:42:03;;;;;;;;;;;6.80;99.90;;;;;;5035344;28;19944;-72
2022/10/28 00:44:38;;;;;;;;;;;6.90;99.90;;;;;;5053249;28;19919;-72
2022/10/28 00:47:04;;;;;;;;;;;6.90;99.90;;;;;;5053370;28;19944;-72
2022/10/28 00:49:32;;;;;;;;;;;6.90;99.90;;;;;;5053589;28;20365;-72
2022/10/28 00:52:03;;;;;;;;;;;6.80;99.90;;;;;;5053218;28;19952;-72
2022/10/28 00:54:28;;;;;;;;;;;6.90;99.90;;;;;;5053252;28;19970;-72
2022/10/28 00:56:55;;;;;;;;;;;6.80;99.90;;;;;;5053182;28;20356;-72
2022/10/28 00:59:25;;;;;;;;;;;6.80;99.90;;;;;;5052952;28;20285;-72
2022/10/28 01:01:50;;;;;;;;;;;6.80;99.90;;;;;;5053376;28;19909;-72
2022/10/28 01:04:16;;;;;;;;;;;6.80;99.90;;;;;;5053142;28;19913;-72
2022/10/28 01:06:41;;;;;;;;;;;6.70;99.90;;;;;;5053102;28;20075;-72
2022/10/28 01:09:07;;;;;;;;;;;6.60;99.90;;;;;;5053389;28;19913;-71
2022/10/28 01:11:35;;;;;;;;;;;6.60;99.90;;;;;;5053127;28;19917;-72
2022/10/28 01:14:15;;;;;;;;;;;6.70;99.90;;;;;;5052897;28;20000;-72
2022/10/28 01:16:59;;;;;;;;;;;6.70;99.90;;;;;;5053879;28;19908;-72
2022/10/28 01:19:51;;;;;;;;;;;6.70;99.90;;;;;;5053232;28;19908;-72
2022/10/28 01:22:30;;;;;;;;;;;6.80;99.90;;;;;;5053498;28;19909;-72
2022/10/28 01:25:01;;;;;;;;;;;6.80;99.90;;;;;;5053149;28;19955;-72
2022/10/28 01:27:27;;;;;;;;;;;6.70;99.90;;;;;;5052907;28;19995;-72
2022/10/28 01:29:55;;;;;;;;;;;6.80;99.90;;;;;;5052710;28;20430;-72
2022/10/28 01:32:39;;;;;;;;;;;6.70;99.90;;;;;;5054862;28;20284;-72
2022/10/28 01:35:05;;;;;;;;;;;6.70;99.90;;;;;;5056576;28;19952;-72
2022/10/28 01:37:38;;;;;;;;;;;6.70;99.90;;;;;;5056513;28;19932;-72
2022/10/28 01:40:17;;;;;;;;;;;6.70;99.90;;;;;;5056798;28;19923;-72
2022/10/28 01:42:52;;;;;;;;;;;6.70;99.90;;;;;;5056479;28;19913;-74
2022/10/28 01:45:19;;;;;;;;;;;6.70;99.90;;;;;;5056259;28;19967;-74
2022/10/28 01:47:45;;;;;;;;;;;6.70;99.90;;;;;;5056627;28;19999;-75
2022/10/28 01:50:15;;;;;;;;;;;6.70;99.90;;;;;;5056329;28;19974;-75
2022/10/28 01:52:41;;;;;;;;;;;6.60;99.90;;;;;;5056485;28;20357;-74
2022/10/28 01:55:20;;;;;;;;;;;6.50;99.90;;;;;;5056219;28;20019;-75
2022/10/28 01:57:46;;;;;;;;;;;6.40;99.90;;;;;;5056444;28;19913;-75
2022/10/28 02:00:12;;;;;;;;;;;6.40;99.90;;;;;;5055995;28;19909;-74
2022/10/28 02:02:38;;;;;;;;;;;6.30;99.90;;;;;;5056057;28;19920;-74
2022/10/28 02:05:22;;;;;;;;;;;6.30;99.90;;;;;;5056587;28;19996;-75
2022/10/28 02:07:49;;;;;;;;;;;6.30;99.90;;;;;;5056280;28;19916;-75
2022/10/28 02:10:20;;;;;;;;;;;6.30;99.90;;;;;;5055961;28;19970;-75
2022/10/28 02:12:47;;;;;;;;;;;6.30;99.90;;;;;;5055745;28;19924;-76
2022/10/28 02:15:17;;;;;;;;;;;6.40;99.90;;;;;;5055734;28;19913;-75
2022/10/28 02:18:00;;;;;;;;;;;6.40;99.90;;;;;;5055429;28;20483;-76
2022/10/28 02:20:29;;;;;;;;;;;6.40;99.90;;;;;;5056107;28;19978;-76
2022/10/28 02:23:07;;;;;;;;;;;6.40;99.90;;;;;;5055698;28;19909;-74
2022/10/28 02:25:52;;;;;;;;;;;6.40;99.90;;;;;;5055604;28;19956;-75
2022/10/28 02:28:22;;;;;;;;;;;6.40;99.90;;;;;;5044910;28;19924;-76
2022/10/28 02:30:58;;;;;;;;;;;6.40;99.90;;;;;;5055338;28;20325;-74
2022/10/28 02:33:25;;;;;;;;;;;6.40;99.90;;;;;;5055382;28;19962;-74
2022/10/28 02:36:00;;;;;;;;;;;6.40;99.90;;;;;;5055740;28;19978;-75
2022/10/28 02:38:46;;;;;;;;;;;6.40;99.90;;;;;;5055490;28;19924;-75
2022/10/28 02:41:18;;;;;;;;;;;6.40;99.90;;;;;;5054745;28;20331;-75
2022/10/28 02:43:45;;;;;;;;;;;6.40;99.90;;;;;;5054387;28;19909;-74
2022/10/28 02:46:12;;;;;;;;;;;6.40;99.90;;;;;;5055483;28;19919;-76
2022/10/28 02:48:46;;;;;;;;;;;6.30;99.90;;;;;;5055565;28;19908;-76
2022/10/28 02:51:20;;;;;;;;;;;6.30;99.90;;;;;;5055474;28;19935;-76
2022/10/28 02:53:58;;;;;;;;;;;6.30;99.90;;;;;;5055060;28;19932;-74
2022/10/28 02:56:23;;;;;;;;;;;6.20;99.90;;;;;;5055034;28;19909;-75
2022/10/28 02:58:49;;;;;;;;;;;6.20;99.90;;;;;;5054785;28;19959;-74
2022/10/28 03:01:15;;;;;;;;;;;6.20;99.90;;;;;;5055001;28;20339;-75
2022/10/28 03:03:40;;;;;;;;;;;6.20;99.90;;;;;;5055171;28;19909;-74
2022/10/28 03:06:06;;;;;;;;;;;6.20;99.90;;;;;;5054867;28;19961;-74
2022/10/28 03:08:31;;;;;;;;;;;6.20;99.90;;;;;;5055314;28;19926;-75
2022/10/28 03:10:57;;;;;;;;;;;6.20;99.90;;;;;;5055328;28;19912;-76
2022/10/28 03:13:22;;;;;;;;;;;6.20;99.90;;;;;;5054514;28;19936;-76
2022/10/28 03:15:48;;;;;;;;;;;6.20;99.90;;;;;;5054472;28;19913;-75
2022/10/28 03:18:14;;;;;;;;;;;6.10;99.90;;;;;;5055239;28;20008;-75
2022/10/28 03:20:39;;;;;;;;;;;6.10;99.90;;;;;;5054595;28;20431;-75
2022/10/28 03:23:05;;;;;;;;;;;6.00;99.90;;;;;;5055038;28;20349;-74
2022/10/28 03:25:30;;;;;;;;;;;6.10;99.90;;;;;;5054589;28;19917;-75
2022/10/28 03:27:56;;;;;;;;;;;6.10;99.90;;;;;;5053257;28;19960;-75
2022/10/28 03:30:21;;;;;;;;;;;6.00;99.90;;;;;;5015147;28;20286;-75
2022/10/28 03:32:47;;;;;;;;;;;6.00;99.90;;;;;;5052457;28;20285;-74
2022/10/28 03:35:12;;;;;;;;;;;6.00;99.90;;;;;;5043468;28;20007;-75
2022/10/28 03:37:42;;;;;;;;;;;5.90;99.90;;;;;;5015601;28;19917;-74
2022/10/28 03:40:08;;;;;;;;;;;5.80;99.90;;;;;;5052259;28;19913;-74
2022/10/28 03:42:34;;;;;;;;;;;5.80;99.90;;;;;;5053219;28;19970;-74
2022/10/28 03:44:59;;;;;;;;;;;5.80;99.90;;;;;;5052913;28;20360;-74
2022/10/28 03:47:25;;;;;;;;;;;5.80;99.90;;;;;;5052176;28;19959;-75
2022/10/28 03:49:50;;;;;;;;;;;5.80;99.90;;;;;;5052797;28;19916;-72
2022/10/28 03:52:16;;;;;;;;;;;5.90;99.90;;;;;;5053798;28;20054;-74
2022/10/28 03:54:42;;;;;;;;;;;5.90;99.90;;;;;;5052166;28;19986;-74
2022/10/28 03:57:07;;;;;;;;;;;5.90;99.90;;;;;;5053424;28;19913;-74
2022/10/28 03:59:33;;;;;;;;;;;5.80;99.90;;;;;;5050875;28;19913;-74
2022/10/28 04:01:58;;;;;;;;;;;5.80;99.90;;;;;;5052833;28;20339;-74
2022/10/28 04:04:24;;;;;;;;;;;5.80;99.90;;;;;;5053225;28;20292;-74
2022/10/28 04:06:49;;;;;;;;;;;5.80;99.90;;;;;;5052765;28;20373;-74
2022/10/28 04:09:15;;;;;;;;;;;5.80;99.90;;;;;;5052435;28;19917;-74
2022/10/28 04:11:40;;;;;;;;;;;5.80;99.90;;;;;;5053397;28;19970;-75
2022/10/28 04:14:06;;;;;;;;;;;5.90;99.90;;;;;;5052735;28;19924;-72
2022/10/28 04:16:31;;;;;;;;;;;5.90;99.90;;;;;;5053490;28;20004;-72
2022/10/28 04:18:57;;;;;;;;;;;5.90;99.90;;;;;;5052352;28;19913;-76
2022/10/28 04:21:22;;;;;;;;;;;5.90;99.90;;;;;;5053358;28;20368;-72
2022/10/28 04:23:48;;;;;;;;;;;5.80;99.90;;;;;;5051028;28;19920;-73
2022/10/28 04:26:14;;;;;;;;;;;5.70;99.90;;;;;;5052884;28;19962;-72
2022/10/28 04:28:39;;;;;;;;;;;5.70;99.90;;;;;;5052795;28;20008;-73
2022/10/28 04:31:05;;;;;;;;;;;5.70;99.90;;;;;;5052583;28;20372;-73
2022/10/28 04:33:31;;;;;;;;;;;5.80;99.90;;;;;;5053317;28;19913;-72
2022/10/28 04:35:56;;;;;;;;;;;5.70;99.90;;;;;;5050961;28;19909;-73
2022/10/28 04:38:22;;;;;;;;;;;5.80;99.90;;;;;;5053810;28;20011;-73
2022/10/28 04:40:48;;;;;;;;;;;5.70;99.90;;;;;;5052352;28;19920;-73
2022/10/28 04:43:13;;;;;;;;;;;5.60;99.90;;;;;;5053072;28;19913;-72
2022/10/28 04:45:39;;;;;;;;;;;5.70;99.90;;;;;;5052670;28;19939;-73
2022/10/28 04:48:05;;;;;;;;;;;5.70;99.90;;;;;;5052277;28;20007;-72
2022/10/28 04:50:30;;;;;;;;;;;5.70;99.90;;;;;;5052771;28;19967;-73
2022/10/28 04:52:56;;;;;;;;;;;5.70;99.90;;;;;;5051108;28;19913;-72
2022/10/28 04:55:21;;;;;;;;;;;5.70;99.90;;;;;;5052297;28;20341;-73
2022/10/28 04:57:53;;;;;;;;;;;5.70;99.90;;;;;;5051751;28;20438;-73
2022/10/28 05:00:19;;;;;;;;;;;5.70;99.90;;;;;;5052761;28;19995;-73
2022/10/28 05:02:45;;;;;;;;;;;5.70;99.90;;;;;;5051771;28;19951;-74
2022/10/28 05:05:10;;;;;;;;;;;5.80;99.90;;;;;;5052842;28;20369;-72
2022/10/28 05:07:37;;;;;;;;;;;5.80;99.90;;;;;;5055101;28;20392;-72
2022/10/28 05:10:02;;;;;;;;;;;5.80;99.90;;;;;;5051575;28;19921;-72
2022/10/28 05:12:28;;;;;;;;;;;5.80;99.90;;;;;;5054924;28;19921;-72
2022/10/28 05:14:53;;;;;;;;;;;5.70;99.90;;;;;;5037976;28;19913;-72
2022/10/28 05:17:19;;;;;;;;;;;5.70;99.90;;;;;;5056414;28;19920;-72
2022/10/28 05:19:45;;;;;;;;;;;5.70;99.90;;;;;;5055947;28;19913;-72
2022/10/28 05:22:10;;;;;;;;;;;5.60;99.90;;;;;;5056266;28;19913;-72
2022/10/28 05:24:36;;;;;;;;;;;5.60;99.90;;;;;;5055882;28;19955;-72
2022/10/28 05:27:01;;;;;;;;;;;5.60;99.90;;;;;;5056214;28;19920;-72
2022/10/28 05:29:27;;;;;;;;;;;5.60;99.90;;;;;;5055519;28;19913;-72
2022/10/28 05:31:52;;;;;;;;;;;5.60;99.90;;;;;;5056084;28;19990;-72
2022/10/28 05:34:18;;;;;;;;;;;5.60;99.90;;;;;;5037823;28;20004;-73
2022/10/28 05:36:43;;;;;;;;;;;5.60;99.90;;;;;;5056039;28;20293;-73
2022/10/28 05:39:09;;;;;;;;;;;5.60;99.90;;;;;;5055643;28;19967;-73
2022/10/28 05:41:34;;;;;;;;;;;5.60;99.90;;;;;;5055777;28;19913;-73
2022/10/28 05:44:00;;;;;;;;;;;5.60;99.90;;;;;;5055468;28;20007;-73
2022/10/28 05:46:25;;;;;;;;;;;5.60;99.90;;;;;;5055549;28;19917;-73
2022/10/28 05:48:51;;;;;;;;;;;5.60;99.90;;;;;;5037439;28;20262;-73
2022/10/28 05:51:16;;;;;;;;;;;5.60;99.90;;;;;;5055768;28;20281;-73
2022/10/28 05:53:43;;;;;;;;;;;5.60;99.90;;;;;;5055226;28;19924;-73
2022/10/28 05:56:09;;;;;;;;;;;5.50;99.90;;;;;;5055743;28;19913;-73
2022/10/28 05:58:34;;;;;;;;;;;5.60;99.90;;;;;;5055283;28;20384;-73
2022/10/28 06:01:00;;;;;;;;;;;5.60;99.90;;;;;;5055661;28;20281;-73
2022/10/28 06:03:25;;;;;;;;;;;5.60;99.90;;;;;;5054808;28;20283;-73
2022/10/28 06:05:52;;;;;;;;;;;5.60;99.90;;;;;;5055796;28;19917;-73
2022/10/28 06:08:18;;;;;;;;;;;5.60;99.90;;;;;;5054595;28;19909;-73
2022/10/28 06:10:50;;;;;;;;;;;5.50;99.90;;;;;;5055818;28;19913;-73
2022/10/28 06:13:16;;;;;;;;;;;5.50;99.90;;;;;;5054386;28;19970;-73
2022/10/28 06:15:41;;;;;;;;;;;5.40;99.90;;;;;;5055484;28;19914;-73
2022/10/28 06:18:07;;;;;;;;;;;5.40;99.90;;;;;;5035615;28;19913;-73
2022/10/28 06:20:32;;;;;;;;;;;5.40;99.90;;;;;;5055604;28;20003;-72
2022/10/28 06:22:58;;;;;;;;;;;5.40;99.90;;;;;;5054372;28;19999;-73
2022/10/28 06:25:24;;;;;;;;;;;5.40;99.90;;;;;;5055453;28;19967;-73
2022/10/28 06:27:54;;;;;;;;;;;5.50;99.90;;;;;;5054275;28;19908;-73
2022/10/28 06:30:19;;;;;;;;;;;5.50;99.90;;;;;;5054109;28;19931;-73
2022/10/28 06:32:45;;;;;;;;;;;5.60;99.90;;;;;;5055293;28;20381;-73
2022/10/28 06:35:10;;;;;;;;;;;5.60;99.90;;;;;;5054280;28;20365;-72
2022/10/28 06:37:36;;;;;;;;;;;5.60;99.90;;;;;;5055287;28;19917;-72
2022/10/28 06:40:02;;;;;;;;;;;5.60;99.90;;;;;;5054232;28;19914;-72
2022/10/28 06:42:27;;;;;;;;;;;5.60;99.90;;;;;;5055035;28;19917;-72
2022/10/28 06:44:53;;;;;;;;;;;5.60;99.90;;;;;;5035784;28;19916;-72
2022/10/28 06:47:19;;;;;;;;;;;5.60;99.90;;;;;;5055145;28;19913;-72
2022/10/28 06:49:44;;;;;;;;;;;5.70;99.90;;;;;;5053486;28;19990;-73
2022/10/28 06:52:10;;;;;;;;;;;5.70;99.90;;;;;;5054516;28;19913;-73
2022/10/28 06:54:36;;;;;;;;;;;5.80;99.90;;;;;;5036540;28;20430;-73
2022/10/28 06:57:01;;;;;;;;;;;5.90;99.90;;;;;;5036917;28;19913;-73
2022/10/28 06:59:27;;;;;;;;;;;5.90;99.90;;;;;;5054620;28;19917;-72
2022/10/28 07:01:52;;;;;;;;;;;6.00;99.90;;;;;;5054991;28;19926;-72
2022/10/28 07:04:18;;;;;;;;;;;6.00;99.90;;;;;;5054911;28;20266;-72
2022/10/28 07:06:43;;;;;;;;;;;6.00;99.90;;;;;;5055477;28;19917;-72
2022/10/28 07:09:13;;;;;;;;;;;6.10;99.90;;;;;;5055149;28;19909;-72
2022/10/28 07:11:39;;;;;;;;;;;6.10;99.90;;;;;;5054817;28;20379;-72
2022/10/28 07:14:04;;;;;;;;;;;6.20;99.90;;;;;;5037253;28;19921;-72
2022/10/28 07:16:30;;;;;;;;;;;6.20;99.90;;;;;;5054417;28;20383;-72
2022/10/28 07:18:55;;;;;;;;;;;6.30;99.90;;;;;;5055200;28;20353;-72
2022/10/28 07:21:24;;;;;;;;;;;6.30;99.90;;;;;;5037137;28;20259;-72
2022/10/28 07:23:50;;;;;;;;;;;6.40;99.90;;;;;;5054515;28;20335;-72
2022/10/28 07:26:15;;;;;;;;;;;6.40;99.90;;;;;;5054706;28;19917;-72
2022/10/28 07:28:41;;;;;;;;;;;6.50;99.90;;;;;;5054514;28;19913;-73
2022/10/28 07:31:07;;;;;;;;;;;6.60;99.90;;;;;;5054002;28;19913;-69
2022/10/28 07:33:32;;;;;;;;;;;6.70;99.90;;;;;;5054339;28;19917;-71
2022/10/28 07:35:58;;;;;;;;;;;6.70;99.90;;;;;;5054636;28;19913;-72
2022/10/28 07:38:25;;;;;;;;;;;6.80;99.90;;;;;;5054284;28;19917;-72
2022/10/28 07:40:50;;;;;;;;;;;6.90;99.90;;;;;;5054554;28;19959;-72
2022/10/28 07:43:16;;;;;;;;;;;7.00;99.90;;;;;;5054108;28;19985;-72
2022/10/28 07:45:41;;;;;;;;;;;7.10;99.90;;;;;;5053782;28;19920;-72
2022/10/28 07:48:08;;;;;;;;;;;7.20;99.90;;;;;;5054436;28;19912;-72
2022/10/28 07:50:33;;;;;;;;;;;7.30;99.90;;;;;;5054131;28;19909;-72
2022/10/28 07:52:59;;;;;;;;;;;7.40;99.90;;;;;;5054061;28;19999;-72
2022/10/28 07:55:25;;;;;;;;;;;7.50;99.90;;;;;;5054035;28;19913;-72
2022/10/28 07:57:50;;;;;;;;;;;7.60;99.90;;;;;;5053997;28;20384;-72
2022/10/28 08:00:16;;;;;;;;;;;7.70;99.90;;;;;;5053675;28;19927;-72
2022/10/28 08:02:41;;;;;;;;;;;7.80;99.90;;;;;;5054019;28;19913;-72
2022/10/28 08:05:07;;;;;;;;;;;7.90;99.90;;;;;;5054157;28;19909;-72
2022/10/28 08:07:33;;;;;;;;;;;8.10;99.90;;;;;;5053789;28;19947;-72
2022/10/28 08:09:58;;;;;;;;;;;8.20;99.90;;;;;;5054064;28;20411;-72
2022/10/28 08:12:24;;;;;;;;;;;8.30;99.90;;;;;;5053696;28;19925;-72
2022/10/28 08:14:49;;;;;;;;;;;8.50;99.90;;;;;;5053480;28;19913;-70
2022/10/28 08:17:15;;;;;;;;;;;8.60;99.90;;;;;;5053903;28;19912;-69
2022/10/28 08:19:41;;;;;;;;;;;8.70;99.90;;;;;;5053647;28;20000;-69
2022/10/28 08:22:06;;;;;;;;;;;8.90;99.90;;;;;;5053852;28;19917;-69
2022/10/28 08:24:32;;;;;;;;;;;9.00;99.90;;;;;;5054161;28;19970;-69
2022/10/28 08:26:57;;;;;;;;;;;9.10;99.90;;;;;;5054086;28;20012;-69
2022/10/28 08:29:23;;;;;;;;;;;9.20;99.90;;;;;;5054026;28;19978;-70
2022/10/28 08:31:49;;;;;;;;;;;9.30;99.90;;;;;;5053132;28;19919;-69
2022/10/28 08:34:14;;;;;;;;;;;9.40;99.90;;;;;;5053737;28;19913;-70
2022/10/28 08:36:40;;;;;;;;;;;9.50;99.90;;;;;;5053445;28;19913;-69
2022/10/28 08:39:05;;;;;;;;;;;9.60;99.90;;;;;;5053684;28;19927;-69
2022/10/28 08:41:37;;;;;;;;;;;9.70;99.90;;;;;;5052753;28;19950;-70
2022/10/28 08:44:02;;;;;;;;;;;9.80;99.90;;;;;;5053431;28;19913;-69
2022/10/28 08:47:03;;;;;;;;;;;9.90;99.90;;;;;;5053122;28;19920;-69
2022/10/28 08:49:31;;;;;;;;;;;10.10;99.90;;;;;;4992045;28;19910;-69
2022/10/28 08:51:59;;;;;;;;;;;10.20;99.90;;;;;;5041146;28;19909;-70
2022/10/28 08:54:38;;;;;;;;;;;10.40;99.90;;;;;;5053535;28;19916;-69
2022/10/28 08:57:05;;;;;;;;;;;10.50;99.90;;;;;;5053490;28;19916;-69
2022/10/28 08:59:34;;;;;;;;;;;10.60;99.90;;;;;;5053453;28;19916;-70
2022/10/28 09:02:03;;;;;;;;;;;10.70;99.90;;;;;;5052841;28;19908;-70
2022/10/28 09:04:40;;;;;;;;;;;10.90;99.90;;;;;;5053163;28;19909;-70
2022/10/28 09:07:09;;;;;;;;;;;11.10;99.90;;;;;;5053377;28;19913;-70
2022/10/28 09:09:35;;;;;;;;;;;11.20;99.90;;;;;;5053120;28;20289;-69
2022/10/28 09:12:01;;;;;;;;;;;11.30;99.90;;;;;;5053208;28;19921;-69
2022/10/28 09:14:26;;;;;;;;;;;11.40;99.90;;;;;;5053066;28;20361;-69
2022/10/28 09:17:02;;;;;;;;;;;11.50;99.90;;;;;;5052842;28;19909;-69
2022/10/28 09:19:31;;;;;;;;;;;11.60;99.90;;;;;;5053283;28;19935;-69
2022/10/28 09:22:11;;;;;;;;;;;11.70;99.90;;;;;;5052890;28;19909;-69
2022/10/28 09:24:37;;;;;;;;;;;11.90;99.90;;;;;;5052892;28;19916;-69
2022/10/28 09:27:02;;;;;;;;;;;12.00;99.90;;;;;;5052932;28;19917;-69
2022/10/28 09:29:48;;;;;;;;;;;12.10;99.90;;;;;;5053019;28;19916;-70
2022/10/28 09:32:13;;;;;;;;;;;12.20;99.90;;;;;;5052362;28;20361;-69
2022/10/28 09:34:41;;;;;;;;;;;12.30;99.90;;;;;;5052880;28;19930;-69
2022/10/28 09:37:16;;;;;;;;;;;12.40;99.90;;;;;;5052880;28;19958;-70
2022/10/28 09:39:44;;;;;;;;;;;12.60;99.90;;;;;;5052798;28;19913;-69
2022/10/28 09:42:13;;;;;;;;;;;12.70;99.90;;;;;;5052708;28;19924;-69
2022/10/28 09:44:59;;;;;;;;;;;12.80;99.90;;;;;;5053050;28;19924;-70
2022/10/28 09:47:26;;;;;;;;;;;13.00;99.90;;;;;;5052236;28;19917;-70
2022/10/28 09:49:54;;;;;;;;;;;13.10;99.90;;;;;;5053039;28;19909;-69
2022/10/28 09:52:23;;;;;;;;;;;13.30;99.90;;;;;;5052740;28;19912;-69
2022/10/28 09:54:52;;;;;;;;;;;13.40;99.90;;;;;;5055631;28;19913;-69
2022/10/28 09:57:19;;;;;;;;;;;13.50;99.90;;;;;;5056242;28;19915;-69
2022/10/28 09:59:45;;;;;;;;;;;13.60;99.90;;;;;;5056196;28;19909;-69
2022/10/28 10:02:22;;;;;;;;;;;13.70;99.90;;;;;;5055870;28;19925;-69
2022/10/28 10:04:47;;;;;;;;;;;13.80;99.90;;;;;;5038330;28;20003;-71
2022/10/28 10:07:17;;;;;;;;;;;13.90;99.90;;;;;;5038103;28;20421;-69
2022/10/28 10:09:43;;;;;;;;;;;14.00;99.90;;;;;;5056291;28;20424;-69
2022/10/28 10:12:09;;;;;;;;;;;14.10;99.90;;;;;;5055652;28;19916;-68
2022/10/28 10:14:40;;;;;;;;;;;14.20;99.90;;;;;;5056465;28;19990;-67
2022/10/28 10:17:10;;;;;;;;;;;14.30;99.90;;;;;;5037761;28;19912;-67
2022/10/28 10:19:54;;;;;;;;;;;14.50;99.90;;;;;;5056081;28;19989;-67
2022/10/28 10:22:29;;;;;;;;;;;14.60;99.90;;;;;;5055997;28;19930;-67
2022/10/28 10:24:54;;;;;;;;;;;14.70;99.90;;;;;;5037776;28;19920;-67
2022/10/28 10:27:20;;;;;;;;;;;14.80;99.90;;;;;;5055730;28;19909;-67
2022/10/28 10:29:50;;;;;;;;;;;14.90;99.90;;;;;;5055906;28;20365;-67
2022/10/28 10:32:17;;;;;;;;;;;14.90;99.90;;;;;;5055335;28;19915;-67
2022/10/28 10:35:05;;;;;;;;;;;15.00;99.90;;;;;;5055870;28;19913;-67
2022/10/28 10:37:34;;;;;;;;;;;15.00;99.90;;;;;;5055782;28;19915;-69
2022/10/28 10:40:22;;;;;;;;;;;15.20;99.90;;;;;;5055478;28;20395;-70
2022/10/28 10:42:48;;;;;;;;;;;15.30;99.90;;;;;;5047063;28;20365;-68
2022/10/28 10:45:18;;;;;;;;;;;15.40;99.90;;;;;;5055333;28;19927;-67
2022/10/28 10:47:43;;;;;;;;;;;15.50;99.90;;;;;;5055827;28;19913;-67
2022/10/28 10:50:17;;;;;;;;;;;15.60;99.90;;;;;;5055290;28;19919;-67
2022/10/28 10:52:47;;;;;;;;;;;15.70;99.90;;;;;;5055437;28;20327;-67
2022/10/28 10:55:19;;;;;;;;;;;15.80;99.90;;;;;;5055142;28;20384;-67
2022/10/28 10:57:46;;;;;;;;;;;15.80;99.90;;;;;;5055392;28;19908;-67
2022/10/28 11:00:15;;;;;;;;;;;16.00;99.90;;;;;;5054843;28;19913;-68
2022/10/28 11:02:44;;;;;;;;;;;16.00;99.90;;;;;;5055232;28;19909;-67
2022/10/28 11:05:10;;;;;;;;;;;16.20;99.90;;;;;;5054707;28;19977;-67
2022/10/28 11:07:44;;;;;;;;;;;16.20;99.90;;;;;;5054977;28;20413;-67
2022/10/28 11:10:23;;;;;;;;;;;16.30;99.90;;;;;;5054946;28;19913;-67
2022/10/28 11:12:50;;;;;;;;;;;16.40;99.90;;;;;;5054586;28;20011;-67
2022/10/28 11:15:15;;;;;;;;;;;16.40;99.90;;;;;;5054556;28;19999;-67
2022/10/28 11:17:52;;;;;;;;;;;16.50;99.90;;;;;;5054760;28;20377;-67
2022/10/28 11:20:23;;;;;;;;;;;16.50;99.90;;;;;;5055008;28;20262;-67
2022/10/28 11:23:12;;;;;;;;;;;16.60;99.90;;;;;;5054631;28;20296;-67
2022/10/28 11:25:40;;;;;;;;;;;16.70;99.90;;;;;;5046299;28;19913;-67
2022/10/28 11:28:11;;;;;;;;;;;16.90;99.90;;;;;;5054508;28;19915;-67
2022/10/28 11:30:45;;;;;;;;;;;17.00;99.90;;;;;;5054208;28;19908;-67
2022/10/28 11:33:14;;;;;;;;;;;17.10;99.90;;;;;;5054347;28;20007;-67
2022/10/28 11:35:58;;;;;;;;;;;17.20;99.90;;;;;;5054395;28;19908;-68
2022/10/28 11:38:23;;;;;;;;;;;17.30;99.90;;;;;;5054337;28;19936;-68
2022/10/28 11:40:52;;;;;;;;;;;17.30;99.90;;;;;;5036468;28;20010;-68
2022/10/28 11:43:20;;;;;;;;;;;17.50;99.90;;;;;;5054096;28;19912;-68
2022/10/28 11:45:56;;;;;;;;;;;17.60;99.90;;;;;;5053871;28;19913;-69
2022/10/28 11:48:40;;;;;;;;;;;17.70;99.90;;;;;;5054736;28;20253;-70
2022/10/28 11:51:17;;;;;;;;;;;17.80;99.90;;;;;;5054118;28;20013;-71
2022/10/28 11:54:11;;;;;;;;;;;17.90;99.90;;;;;;5054063;28;19986;-69
2022/10/28 11:56:57;;;;;;;;;;;18.00;99.90;;;;;;5038306;28;19961;-69
2022/10/28 11:59:41;;;;;;;;;;;18.10;99.90;;;;;;5049170;28;20443;-69
2022/10/28 12:02:25;;;;;;;;;;;18.20;99.90;;;;;;5053385;28;19916;-68
2022/10/28 12:05:02;;;;;;;;;;;18.30;99.90;;;;;;5052866;28;19909;-69
2022/10/28 12:07:31;;;;;;;;;;;18.40;99.90;;;;;;5053714;28;19920;-69
2022/10/28 12:10:28;;;;;;;;;;;18.50;99.90;;;;;;5053339;28;20280;-69
2022/10/28 12:13:00;;;;;;;;;;;18.60;99.90;;;;;;5016275;28;19960;-69
2022/10/28 12:15:39;;;;;;;;;;;18.70;99.90;;;;;;5053097;28;19909;-67
2022/10/28 12:18:23;;;;;;;;;;;18.70;99.90;;;;;;5052125;28;19909;-67
2022/10/28 12:20:54;;;;;;;;;;;18.80;99.90;;;;;;5053507;28;19962;-67
2022/10/28 12:23:21;;;;;;;;;;;18.90;99.90;;;;;;5053480;28;19909;-67
2022/10/28 12:25:48;;;;;;;;;;;18.90;99.90;;;;;;5053350;28;20300;-70
2022/10/28 12:28:20;;;;;;;;;;;19.00;99.90;;;;;;5053406;28;19909;-70
2022/10/28 12:30:47;;;;;;;;;;;19.00;99.90;;;;;;5053154;28;19908;-70
2022/10/28 12:33:15;;;;;;;;;;;19.00;99.90;;;;;;5052895;28;19913;-67
2022/10/28 12:35:50;;;;;;;;;;;19.20;99.90;;;;;;5052848;28;19908;-68
2022/10/28 12:38:36;;;;;;;;;;;19.30;99.90;;;;;;5052702;28;19908;-69
2022/10/28 12:41:05;;;;;;;;;;;19.40;99.90;;;;;;5021693;28;20426;-69
2022/10/28 12:43:37;;;;;;;;;;;19.50;99.60;;;;;;5053214;28;20435;-67
2022/10/28 12:46:02;;;;;;;;;;;19.70;99.50;;;;;;5053210;28;19928;-67
2022/10/28 12:48:32;;;;;;;;;;;19.90;99.90;;;;;;5053893;28;19913;-67
2022/10/28 12:51:02;;;;;;;;;;;20.00;99.90;;;;;;5053591;28;19909;-67
2022/10/28 12:53:34;;;;;;;;;;;20.10;99.90;;;;;;5053249;28;20004;-67
2022/10/28 12:56:00;;;;;;;;;;;20.30;99.30;;;;;;5035405;28;19916;-68
2022/10/28 12:58:32;;;;;;;;;;;20.40;99.60;;;;;;5053796;28;19913;-69
2022/10/28 13:01:08;;;;;;;;;;;20.50;99.90;;;;;;5052968;28;19940;-69
2022/10/28 13:03:34;;;;;;;;;;;20.50;99.90;;;;;;5053466;28;19909;-69
2022/10/28 13:05:59;;;;;;;;;;;20.50;98.90;;;;;;5053346;28;20312;-69
2022/10/28 13:08:28;;;;;;;;;;;20.60;98.80;;;;;;5053138;28;20341;-68
2022/10/28 13:10:57;;;;;;;;;;;20.60;99.00;;;;;;5053109;28;19913;-68
2022/10/28 13:13:38;;;;;;;;;;;20.50;98.10;;;;;;5052881;28;19986;-69
2022/10/28 13:16:16;;;;;;;;;;;20.30;99.90;;;;;;5053067;28;20292;-68
2022/10/28 13:18:45;;;;;;;;;;;20.30;98.70;;;;;;5053344;28;20384;-68
2022/10/28 13:21:33;;;;;;;;;;;20.10;98.20;;;;;;5053025;28;19958;-69
2022/10/28 13:24:11;;;;;;;;;;;20.00;98.40;;;;;;5024486;28;20008;-69
2022/10/28 13:26:40;;;;;;;;;;;19.90;99.60;;;;;;5052910;28;19912;-68
2022/10/28 13:29:07;;;;;;;;;;;19.80;99.90;;;;;;5056495;28;20393;-68
2022/10/28 13:31:37;;;;;;;;;;;19.80;99.90;;;;;;5057258;28;20288;-68
2022/10/28 13:34:03;;;;;;;;;;;19.80;99.90;;;;;;5056748;28;19917;-68
2022/10/28 13:36:41;;;;;;;;;;;19.70;99.90;;;;;;5056692;28;20271;-69
2022/10/28 13:39:39;;;;;;;;;;;19.80;99.90;;;;;;5056621;28;20368;-69
2022/10/28 13:42:14;;;;;;;;;;;19.70;99.90;;;;;;5023079;28;19916;-68
2022/10/28 13:44:54;;;;;;;;;;;19.60;99.90;;;;;;5056531;28;19952;-68
2022/10/28 13:47:24;;;;;;;;;;;19.50;99.90;;;;;;5056158;28;19913;-68
2022/10/28 13:50:05;;;;;;;;;;;19.50;99.90;;;;;;5056410;28;19908;-69
2022/10/28 13:52:31;;;;;;;;;;;19.40;99.90;;;;;;5056359;28;20384;-68
2022/10/28 13:54:57;;;;;;;;;;;19.40;99.90;;;;;;5056318;28;19958;-69
2022/10/28 13:57:29;;;;;;;;;;;19.40;99.90;;;;;;5056300;28;19916;-68
2022/10/28 13:59:56;;;;;;;;;;;19.30;99.90;;;;;;5056206;28;19909;-68
2022/10/28 14:02:24;;;;;;;;;;;19.30;99.90;;;;;;5055901;28;20008;-69
2022/10/28 14:04:54;;;;;;;;;;;19.30;99.90;;;;;;5038240;28;20392;-69
2022/10/28 14:07:21;;;;;;;;;;;19.30;99.90;;;;;;5056051;28;20461;-69
2022/10/28 14:09:48;;;;;;;;;;;19.20;99.90;;;;;;5056052;28;19999;-68
2022/10/28 14:12:23;;;;;;;;;;;19.20;99.90;;;;;;5055810;28;19917;-67
2022/10/28 14:14:58;;;;;;;;;;;19.20;99.90;;;;;;5056481;28;19908;-67
2022/10/28 14:17:44;;;;;;;;;;;19.10;99.90;;;;;;5055719;28;20004;-68
2022/10/28 14:20:19;;;;;;;;;;;19.10;99.90;;;;;;5055280;28;19908;-69
2022/10/28 14:22:45;;;;;;;;;;;19.00;99.90;;;;;;5037960;28;19948;-69
2022/10/28 14:25:29;;;;;;;;;;;19.00;99.90;;;;;;5055704;28;20321;-69
2022/10/28 14:27:54;;;;;;;;;;;18.90;99.90;;;;;;5055973;28;20373;-67
2022/10/28 14:30:21;;;;;;;;;;;18.80;99.90;;;;;;5055602;28;19971;-67
2022/10/28 14:32:56;;;;;;;;;;;18.80;99.90;;;;;;5055296;28;19958;-70
2022/10/28 14:35:27;;;;;;;;;;;18.80;99.90;;;;;;5055788;28;20349;-71
2022/10/28 14:38:12;;;;;;;;;;;18.70;99.90;;;;;;5056007;28;20320;-71